sensor_id;sensor_type;location;lat;lon;timestamp;pressure;altitude;pressure_sealevel;temperature;humidity
64886;BME280;51514;52.206;5.114;2023-02-15T00:00:25;103001.25;;;5.07;77.04
64886;BME280;51514;52.206;5.114;2023-02-15T00:02:50;103010.34;;;5.03;76.92
64886;BME280;51514;52.206;5.114;2023-02-15T00:05:16;103010.34;;;5.03;76.88
64886;BME280;51514;52.206;5.114;2023-02-15T00:07:41;103008.41;;;5.06;77.16
64886;BME280;51514;52.206;5.114;2023-02-15T00:10:07;103006.66;;;5.05;77.31
64886;BME280;51514;52.206;5.114;2023-02-15T00:12:32;103009.28;;;5.07;77.11
64886;BME280;51514;52.206;5.114;2023-02-15T00:14:58;103005.13;;;5.00;76.79
64886;BME280;51514;52.206;5.114;2023-02-15T00:17:23;103002.06;;;4.89;76.80
64886;BME280;51514;52.206;5.114;2023-02-15T00:19:49;103008.13;;;4.73;77.58
64886;BME280;51514;52.206;5.114;2023-02-15T00:22:14;103003.03;;;4.67;77.36
64886;BME280;51514;52.206;5.114;2023-02-15T00:24:39;103000.75;;;4.58;77.80
64886;BME280;51514;52.206;5.114;2023-02-15T00:27:05;102987.69;;;4.52;77.92
64886;BME280;51514;52.206;5.114;2023-02-15T00:29:30;102987.41;;;4.38;78.35
64886;BME280;51514;52.206;5.114;2023-02-15T00:31:56;102985.53;;;4.20;78.70
64886;BME280;51514;52.206;5.114;2023-02-15T00:34:24;102984.97;;;4.12;77.71
64886;BME280;51514;52.206;5.114;2023-02-15T00:36:49;102986.53;;;4.17;78.22
64886;BME280;51514;52.206;5.114;2023-02-15T00:39:16;102990.03;;;4.19;77.89
64886;BME280;51514;52.206;5.114;2023-02-15T00:41:42;102986.47;;;4.19;78.15
64886;BME280;51514;52.206;5.114;2023-02-15T00:44:07;102988.22;;;4.20;77.93
64886;BME280;51514;52.206;5.114;2023-02-15T00:46:33;102970.25;;;4.23;78.05
64886;BME280;51514;52.206;5.114;2023-02-15T00:48:58;102980.84;;;4.25;78.49
64886;BME280;51514;52.206;5.114;2023-02-15T00:51:24;102973.78;;;4.24;77.93
64886;BME280;51514;52.206;5.114;2023-02-15T00:53:50;102975.00;;;4.17;78.17
64886;BME280;51514;52.206;5.114;2023-02-15T00:56:15;102972.59;;;4.11;78.63
64886;BME280;51514;52.206;5.114;2023-02-15T00:58:41;102979.72;;;4.10;78.57
64886;BME280;51514;52.206;5.114;2023-02-15T01:01:09;102966.97;;;4.17;79.08
64886;BME280;51514;52.206;5.114;2023-02-15T01:03:36;102967.09;;;4.14;78.99
64886;BME280;51514;52.206;5.114;2023-02-15T01:06:02;102974.25;;;4.13;78.89
64886;BME280;51514;52.206;5.114;2023-02-15T01:08:28;102973.31;;;4.14;78.37
64886;BME280;51514;52.206;5.114;2023-02-15T01:10:54;102971.63;;;4.12;78.22
64886;BME280;51514;52.206;5.114;2023-02-15T01:13:20;102968.31;;;4.07;78.60
64886;BME280;51514;52.206;5.114;2023-02-15T01:15:45;102965.88;;;4.00;78.76
64886;BME280;51514;52.206;5.114;2023-02-15T01:18:11;102959.59;;;4.01;78.97
64886;BME280;51514;52.206;5.114;2023-02-15T01:20:38;102955.75;;;4.09;79.35
64886;BME280;51514;52.206;5.114;2023-02-15T01:23:05;102952.88;;;4.13;78.93
64886;BME280;51514;52.206;5.114;2023-02-15T01:25:30;102952.81;;;4.15;78.61
64886;BME280;51514;52.206;5.114;2023-02-15T01:27:56;102943.06;;;4.14;78.80
64886;BME280;51514;52.206;5.114;2023-02-15T01:30:21;102942.16;;;4.15;78.39
64886;BME280;51514;52.206;5.114;2023-02-15T01:32:46;102935.88;;;4.16;78.57
64886;BME280;51514;52.206;5.114;2023-02-15T01:35:12;102935.00;;;4.15;78.95
64886;BME280;51514;52.206;5.114;2023-02-15T01:37:38;102935.13;;;4.12;78.20
64886;BME280;51514;52.206;5.114;2023-02-15T01:40:05;102937.94;;;4.09;78.80
64886;BME280;51514;52.206;5.114;2023-02-15T01:42:31;102933.47;;;4.10;78.62
64886;BME280;51514;52.206;5.114;2023-02-15T01:45:03;102930.81;;;4.10;78.95
64886;BME280;51514;52.206;5.114;2023-02-15T01:47:42;102916.44;;;4.12;79.10
64886;BME280;51514;52.206;5.114;2023-02-15T01:50:36;102922.59;;;4.14;79.84
64886;BME280;51514;52.206;5.114;2023-02-15T01:53:05;102924.25;;;4.17;79.05
64886;BME280;51514;52.206;5.114;2023-02-15T01:55:41;102926.06;;;4.16;79.29
64886;BME280;51514;52.206;5.114;2023-02-15T01:58:09;102919.78;;;4.17;79.15
64886;BME280;51514;52.206;5.114;2023-02-15T02:00:34;102921.53;;;4.18;79.03
64886;BME280;51514;52.206;5.114;2023-02-15T02:03:01;102916.13;;;4.20;80.06
64886;BME280;51514;52.206;5.114;2023-02-15T02:05:27;102912.66;;;4.18;79.94
64886;BME280;51514;52.206;5.114;2023-02-15T02:07:56;102912.66;;;4.18;80.59
64886;BME280;51514;52.206;5.114;2023-02-15T02:10:23;102912.66;;;4.18;80.77
64886;BME280;51514;52.206;5.114;2023-02-15T02:12:51;102914.44;;;4.17;80.63
64886;BME280;51514;52.206;5.114;2023-02-15T02:15:18;102908.31;;;4.15;81.69
64886;BME280;51514;52.206;5.114;2023-02-15T02:28:33;102882.59;;;4.33;82.89
64886;BME280;51514;52.206;5.114;2023-02-15T02:36:45;102886.06;;;4.35;82.32
64886;BME280;51514;52.206;5.114;2023-02-15T02:39:33;102878.03;;;4.35;82.43
64886;BME280;51514;52.206;5.114;2023-02-15T02:45:21;102885.25;;;4.33;82.40
64886;BME280;51514;52.206;5.114;2023-02-15T02:47:58;102886.06;;;4.35;81.53
64886;BME280;51514;52.206;5.114;2023-02-15T02:50:29;102878.03;;;4.35;81.76
64886;BME280;51514;52.206;5.114;2023-02-15T02:52:56;102875.25;;;4.38;81.87
64886;BME280;51514;52.206;5.114;2023-02-15T02:58:42;102869.84;;;4.39;80.92
64886;BME280;51514;52.206;5.114;2023-02-15T03:01:01;102865.06;;;4.46;81.17
64886;BME280;51514;52.206;5.114;2023-02-15T03:04:01;102856.88;;;4.51;81.38
64886;BME280;51514;52.206;5.114;2023-02-15T03:07:18;102850.53;;;4.53;82.14
64886;BME280;51514;52.206;5.114;2023-02-15T03:09:42;102841.56;;;4.54;81.89
64886;BME280;51514;52.206;5.114;2023-02-15T03:12:16;102843.28;;;4.55;82.54
64886;BME280;51514;52.206;5.114;2023-02-15T03:14:44;102844.94;;;4.58;82.86
64886;BME280;51514;52.206;5.114;2023-02-15T03:17:13;102841.41;;;4.57;82.48
64886;BME280;51514;52.206;5.114;2023-02-15T03:19:40;102835.13;;;4.58;82.43
64886;BME280;51514;52.206;5.114;2023-02-15T03:22:10;102839.53;;;4.59;82.93
64886;BME280;51514;52.206;5.114;2023-02-15T03:24:57;102836.06;;;4.57;82.44
64886;BME280;51514;52.206;5.114;2023-02-15T03:27:27;102832.59;;;4.55;82.41
64886;BME280;51514;52.206;5.114;2023-02-15T03:29:58;102836.38;;;4.51;82.31
64886;BME280;51514;52.206;5.114;2023-02-15T03:32:27;102835.50;;;4.51;82.29
64886;BME280;51514;52.206;5.114;2023-02-15T03:34:53;102831.03;;;4.51;81.98
64886;BME280;51514;52.206;5.114;2023-02-15T03:40:19;102827.56;;;4.49;82.83
64886;BME280;51514;52.206;5.114;2023-02-15T03:45:35;102823.94;;;4.50;83.48
64886;BME280;51514;52.206;5.114;2023-02-15T03:48:04;102830.09;;;4.52;82.75
64886;BME280;51514;52.206;5.114;2023-02-15T03:50:32;102824.69;;;4.54;82.86
64886;BME280;51514;52.206;5.114;2023-02-15T03:53:21;102825.56;;;4.54;83.02
64886;BME280;51514;52.206;5.114;2023-02-15T03:55:48;102815.69;;;4.55;82.83
64886;BME280;51514;52.206;5.114;2023-02-15T03:58:14;102814.94;;;4.53;83.21
64886;BME280;51514;52.206;5.114;2023-02-15T04:00:59;102813.19;;;4.52;82.67
64886;BME280;51514;52.206;5.114;2023-02-15T04:04:07;102819.59;;;4.48;83.23
64886;BME280;51514;52.206;5.114;2023-02-15T04:06:35;102816.19;;;4.44;83.02
64886;BME280;51514;52.206;5.114;2023-02-15T04:09:00;102811.97;;;4.40;82.60
64886;BME280;51514;52.206;5.114;2023-02-15T04:11:44;102805.16;;;4.33;83.04
64886;BME280;51514;52.206;5.114;2023-02-15T04:14:10;102808.03;;;4.28;82.55
64886;BME280;51514;52.206;5.114;2023-02-15T04:16:54;102798.50;;;4.23;82.56
64886;BME280;51514;52.206;5.114;2023-02-15T04:19:19;102804.00;;;4.20;82.44
64886;BME280;51514;52.206;5.114;2023-02-15T04:22:03;102807.66;;;4.17;82.01
64886;BME280;51514;52.206;5.114;2023-02-15T04:24:47;102803.31;;;4.15;82.12
64886;BME280;51514;52.206;5.114;2023-02-15T04:27:32;102801.66;;;4.12;81.39
64886;BME280;51514;52.206;5.114;2023-02-15T04:29:58;102794.75;;;4.08;81.48
64886;BME280;51514;52.206;5.114;2023-02-15T04:32:23;102785.06;;;4.06;81.79
64886;BME280;51514;52.206;5.114;2023-02-15T04:34:48;102787.66;;;4.07;82.12
64886;BME280;51514;52.206;5.114;2023-02-15T04:37:14;102789.53;;;4.05;82.41
64886;BME280;51514;52.206;5.114;2023-02-15T04:39:39;102784.25;;;4.03;82.23
64886;BME280;51514;52.206;5.114;2023-02-15T04:42:04;102785.06;;;4.06;82.07
64886;BME280;51514;52.206;5.114;2023-02-15T04:44:30;102785.06;;;4.06;82.11
64886;BME280;51514;52.206;5.114;2023-02-15T04:46:55;102781.47;;;4.07;82.37
64886;BME280;51514;52.206;5.114;2023-02-15T04:49:21;102782.31;;;4.07;82.59
64886;BME280;51514;52.206;5.114;2023-02-15T04:51:46;102776.06;;;4.08;82.82
64886;BME280;51514;52.206;5.114;2023-02-15T04:54:11;102775.31;;;4.04;82.83
64886;BME280;51514;52.206;5.114;2023-02-15T04:56:37;102778.84;;;4.05;82.72
64886;BME280;51514;52.206;5.114;2023-02-15T04:59:04;102776.19;;;4.05;82.95
64886;BME280;51514;52.206;5.114;2023-02-15T05:01:29;102779.66;;;4.07;83.16
64886;BME280;51514;52.206;5.114;2023-02-15T05:03:54;102777.84;;;4.08;83.01
64886;BME280;51514;52.206;5.114;2023-02-15T05:06:20;102785.06;;;4.06;82.10
64886;BME280;51514;52.206;5.114;2023-02-15T05:08:45;102790.41;;;4.06;82.99
64886;BME280;51514;52.206;5.114;2023-02-15T05:11:10;102790.47;;;4.04;82.96
64886;BME280;51514;52.206;5.114;2023-02-15T05:13:36;102786.13;;;4.01;82.39
64886;BME280;51514;52.206;5.114;2023-02-15T05:16:01;102788.09;;;3.98;81.95
64886;BME280;51514;52.206;5.114;2023-02-15T05:18:26;102773.88;;;3.97;81.56
64886;BME280;51514;52.206;5.114;2023-02-15T05:20:52;102784.69;;;3.94;81.55
64886;BME280;51514;52.206;5.114;2023-02-15T05:23:17;102779.34;;;3.94;81.74
64886;BME280;51514;52.206;5.114;2023-02-15T05:25:47;102776.66;;;3.94;82.32
64886;BME280;51514;52.206;5.114;2023-02-15T05:28:31;102779.28;;;3.96;82.04
64886;BME280;51514;52.206;5.114;2023-02-15T05:31:13;102774.00;;;3.94;82.55
64886;BME280;51514;52.206;5.114;2023-02-15T05:33:39;102766.88;;;3.95;83.32
64886;BME280;51514;52.206;5.114;2023-02-15T05:36:05;102768.66;;;3.94;82.93
64886;BME280;51514;52.206;5.114;2023-02-15T05:38:31;102764.38;;;3.90;82.84
64886;BME280;51514;52.206;5.114;2023-02-15T05:40:57;102766.41;;;3.85;82.41
64886;BME280;51514;52.206;5.114;2023-02-15T05:43:23;102763.88;;;3.82;82.47
64886;BME280;51514;52.206;5.114;2023-02-15T05:45:51;102762.13;;;3.81;82.28
64886;BME280;51514;52.206;5.114;2023-02-15T05:48:18;102765.72;;;3.80;82.43
64886;BME280;51514;52.206;5.114;2023-02-15T05:50:44;102766.66;;;3.79;82.22
64886;BME280;51514;52.206;5.114;2023-02-15T05:53:09;102764.97;;;3.78;83.28
64886;BME280;51514;52.206;5.114;2023-02-15T05:55:37;102771.13;;;3.79;83.92
64886;BME280;51514;52.206;5.114;2023-02-15T05:58:04;102764.28;;;3.73;82.36
64886;BME280;51514;52.206;5.114;2023-02-15T06:00:29;102766.38;;;3.66;81.93
64886;BME280;51514;52.206;5.114;2023-02-15T06:02:54;102759.50;;;3.61;82.16
64886;BME280;51514;52.206;5.114;2023-02-15T06:05:20;102753.34;;;3.59;82.00
64886;BME280;51514;52.206;5.114;2023-02-15T06:07:45;102762.28;;;3.58;82.34
64886;BME280;51514;52.206;5.114;2023-02-15T06:10:11;102757.09;;;3.55;82.63
64886;BME280;51514;52.206;5.114;2023-02-15T06:12:37;102749.09;;;3.55;82.34
64886;BME280;51514;52.206;5.114;2023-02-15T06:15:03;102744.69;;;3.54;82.87
64886;BME280;51514;52.206;5.114;2023-02-15T06:17:28;102755.63;;;3.48;82.25
64886;BME280;51514;52.206;5.114;2023-02-15T06:19:53;102752.16;;;3.46;82.46
64886;BME280;51514;52.206;5.114;2023-02-15T06:22:19;102749.56;;;3.44;83.45
64886;BME280;51514;52.206;5.114;2023-02-15T06:24:45;102760.06;;;3.47;82.95
64886;BME280;51514;52.206;5.114;2023-02-15T06:27:11;102750.44;;;3.45;82.89
64886;BME280;51514;52.206;5.114;2023-02-15T06:29:36;102743.31;;;3.45;82.99
64886;BME280;51514;52.206;5.114;2023-02-15T06:32:01;102749.50;;;3.46;83.03
64886;BME280;51514;52.206;5.114;2023-02-15T06:34:27;102746.84;;;3.46;83.62
64886;BME280;51514;52.206;5.114;2023-02-15T06:36:52;102757.50;;;3.46;83.54
64886;BME280;51514;52.206;5.114;2023-02-15T06:39:17;102756.69;;;3.44;82.96
64886;BME280;51514;52.206;5.114;2023-02-15T06:41:43;102749.69;;;3.41;83.19
64886;BME280;51514;52.206;5.114;2023-02-15T06:44:08;102758.75;;;3.37;83.78
64886;BME280;51514;52.206;5.114;2023-02-15T06:46:33;102757.09;;;3.35;83.68
64886;BME280;51514;52.206;5.114;2023-02-15T06:48:59;102749.97;;;3.35;83.62
64886;BME280;51514;52.206;5.114;2023-02-15T06:51:24;102761.47;;;3.36;83.08
64886;BME280;51514;52.206;5.114;2023-02-15T06:53:49;102759.81;;;3.33;83.13
64886;BME280;51514;52.206;5.114;2023-02-15T06:56:15;102759.19;;;3.26;83.29
64886;BME280;51514;52.206;5.114;2023-02-15T06:58:41;102745.16;;;3.23;83.23
64886;BME280;51514;52.206;5.114;2023-02-15T07:01:08;102746.16;;;3.20;83.34
64886;BME280;51514;52.206;5.114;2023-02-15T07:03:34;102752.47;;;3.18;84.23
64886;BME280;51514;52.206;5.114;2023-02-15T07:06:01;102752.47;;;3.18;84.11
64886;BME280;51514;52.206;5.114;2023-02-15T07:08:28;102752.53;;;3.16;84.17
64886;BME280;51514;52.206;5.114;2023-02-15T07:10:55;102749.78;;;3.18;83.94
64886;BME280;51514;52.206;5.114;2023-02-15T07:13:40;102751.66;;;3.16;84.39
64886;BME280;51514;52.206;5.114;2023-02-15T07:16:08;102748.94;;;3.17;84.73
64886;BME280;51514;52.206;5.114;2023-02-15T07:18:33;102749.75;;;3.19;84.83
64886;BME280;51514;52.206;5.114;2023-02-15T07:20:58;102753.16;;;3.23;84.55
64886;BME280;51514;52.206;5.114;2023-02-15T07:23:24;102744.00;;;3.28;84.55
64886;BME280;51514;52.206;5.114;2023-02-15T07:25:56;102741.16;;;3.33;84.81
64886;BME280;51514;52.206;5.114;2023-02-15T07:28:22;102728.63;;;3.35;85.14
64886;BME280;51514;52.206;5.114;2023-02-15T07:30:47;102724.81;;;3.41;85.43
64886;BME280;51514;52.206;5.114;2023-02-15T07:33:13;102723.69;;;3.46;84.59
64886;BME280;51514;52.206;5.114;2023-02-15T07:36:00;102726.84;;;3.56;84.42
64886;BME280;51514;52.206;5.114;2023-02-15T07:38:36;102724.94;;;3.58;85.01
64886;BME280;51514;52.206;5.114;2023-02-15T07:41:05;102726.56;;;3.62;84.80
64886;BME280;51514;52.206;5.114;2023-02-15T07:43:33;102726.13;;;3.71;84.33
64886;BME280;51514;52.206;5.114;2023-02-15T07:46:00;102716.78;;;3.81;84.74
64886;BME280;51514;52.206;5.114;2023-02-15T07:48:26;102717.97;;;3.94;84.23
64886;BME280;51514;52.206;5.114;2023-02-15T07:50:52;102714.88;;;4.03;83.72
64886;BME280;51514;52.206;5.114;2023-02-15T07:53:17;102724.19;;;4.14;83.63
64886;BME280;51514;52.206;5.114;2023-02-15T07:55:42;102709.47;;;4.24;83.00
64886;BME280;51514;52.206;5.114;2023-02-15T07:58:08;102710.75;;;4.34;83.44
64886;BME280;51514;52.206;5.114;2023-02-15T08:00:33;102705.69;;;4.47;82.51
64886;BME280;51514;52.206;5.114;2023-02-15T08:03:18;102707.03;;;4.55;82.43
64886;BME280;51514;52.206;5.114;2023-02-15T08:05:44;102703.22;;;4.61;82.07
64886;BME280;51514;52.206;5.114;2023-02-15T08:08:11;102701.03;;;4.69;81.92
64886;BME280;51514;52.206;5.114;2023-02-15T08:11:13;102699.22;;;4.69;81.90
64886;BME280;51514;52.206;5.114;2023-02-15T08:19:12;102687.00;;;5.00;81.28
64886;BME280;51514;52.206;5.114;2023-02-15T08:21:40;102687.91;;;5.18;81.41
64886;BME280;51514;52.206;5.114;2023-02-15T08:24:07;102675.38;;;5.35;80.90
64886;BME280;51514;52.206;5.114;2023-02-15T08:26:33;102681.81;;;5.48;80.54
64886;BME280;51514;52.206;5.114;2023-02-15T08:28:59;102679.81;;;5.52;80.44
64886;BME280;51514;52.206;5.114;2023-02-15T08:31:25;102671.09;;;5.48;80.25
64886;BME280;51514;52.206;5.114;2023-02-15T08:33:52;102675.59;;;5.48;80.76
64886;BME280;51514;52.206;5.114;2023-02-15T08:36:20;102679.13;;;5.48;81.04
64886;BME280;51514;52.206;5.114;2023-02-15T08:38:46;102680.06;;;5.47;81.36
64886;BME280;51514;52.206;5.114;2023-02-15T08:43:51;102685.91;;;5.38;81.15
64886;BME280;51514;52.206;5.114;2023-02-15T08:46:19;102674.72;;;5.30;81.70
64886;BME280;51514;52.206;5.114;2023-02-15T08:48:44;102671.22;;;5.30;81.65
64886;BME280;51514;52.206;5.114;2023-02-15T08:51:18;102670.72;;;5.39;82.02
64886;BME280;51514;52.206;5.114;2023-02-15T08:53:46;102669.13;;;5.52;82.04
64886;BME280;51514;52.206;5.114;2023-02-15T08:56:14;102665.78;;;5.64;82.14
64886;BME280;51514;52.206;5.114;2023-02-15T08:58:40;102664.69;;;5.68;82.28
64886;BME280;51514;52.206;5.114;2023-02-15T09:01:13;102668.06;;;5.72;82.42
64886;BME280;51514;52.206;5.114;2023-02-15T09:03:43;102674.19;;;5.74;82.34
64886;BME280;51514;52.206;5.114;2023-02-15T09:06:09;102667.56;;;5.81;82.37
64886;BME280;51514;52.206;5.114;2023-02-15T09:08:34;102673.31;;;5.91;82.74
64886;BME280;51514;52.206;5.114;2023-02-15T09:11:15;102668.31;;;6.00;82.64
64886;BME280;51514;52.206;5.114;2023-02-15T09:13:49;102666.63;;;6.15;82.67
64886;BME280;51514;52.206;5.114;2023-02-15T09:16:15;102668.69;;;6.26;82.59
64886;BME280;51514;52.206;5.114;2023-02-15T09:18:42;102670.69;;;6.38;82.61
64886;BME280;51514;52.206;5.114;2023-02-15T09:21:18;102662.81;;;6.35;81.57
64886;BME280;51514;52.206;5.114;2023-02-15T09:23:46;102663.16;;;6.44;81.87
64886;BME280;51514;52.206;5.114;2023-02-15T09:26:17;102656.56;;;6.50;82.14
64886;BME280;51514;52.206;5.114;2023-02-15T09:28:43;102664.78;;;6.47;80.36
64886;BME280;51514;52.206;5.114;2023-02-15T09:31:14;102662.91;;;6.49;80.72
64886;BME280;51514;52.206;5.114;2023-02-15T09:33:44;102656.91;;;6.44;80.17
64886;BME280;51514;52.206;5.114;2023-02-15T09:36:19;102664.00;;;6.45;80.81
64886;BME280;51514;52.206;5.114;2023-02-15T09:38:46;102662.78;;;6.50;80.65
64886;BME280;51514;52.206;5.114;2023-02-15T10:11:51;102678.56;;;7.89;77.56
64886;BME280;51514;52.206;5.114;2023-02-15T10:28:19;102674.34;;;8.81;75.32
64886;BME280;51514;52.206;5.114;2023-02-15T10:30:50;102672.34;;;8.97;74.68
64886;BME280;51514;52.206;5.114;2023-02-15T10:33:37;102673.66;;;9.04;73.47
64886;BME280;51514;52.206;5.114;2023-02-15T10:39:30;102669.91;;;9.32;73.55
64886;BME280;51514;52.206;5.114;2023-02-15T10:44:37;102663.38;;;9.62;72.94
64886;BME280;51514;52.206;5.114;2023-02-15T10:47:22;102663.59;;;9.71;72.24
64886;BME280;51514;52.206;5.114;2023-02-15T10:50:06;102651.72;;;9.86;71.51
64886;BME280;51514;52.206;5.114;2023-02-15T10:58:26;102636.94;;;9.92;69.86
64886;BME280;51514;52.206;5.114;2023-02-15T11:03:41;102638.03;;;9.89;69.88
64886;BME280;51514;52.206;5.114;2023-02-15T11:06:14;102628.75;;;9.94;70.22
64886;BME280;51514;52.206;5.114;2023-02-15T11:08:45;102626.34;;;10.02;70.56
64886;BME280;51514;52.206;5.114;2023-02-15T11:11:30;102616.34;;;10.04;69.30
64886;BME280;51514;52.206;5.114;2023-02-15T11:14:01;102617.19;;;10.04;70.00
64886;BME280;51514;52.206;5.114;2023-02-15T11:16:31;102617.31;;;10.03;69.85
64886;BME280;51514;52.206;5.114;2023-02-15T11:21:26;102610.06;;;10.16;68.88
64886;BME280;51514;52.206;5.114;2023-02-15T11:23:53;102604.34;;;10.20;68.94
64886;BME280;51514;52.206;5.114;2023-02-15T11:26:27;102604.97;;;10.24;69.06
64886;BME280;51514;52.206;5.114;2023-02-15T11:29:01;102608.44;;;10.26;69.98
64886;BME280;51514;52.206;5.114;2023-02-15T11:31:41;102595.44;;;10.31;69.69
64886;BME280;51514;52.206;5.114;2023-02-15T11:34:16;102593.03;;;10.39;69.31
64886;BME280;51514;52.206;5.114;2023-02-15T11:36:44;102584.03;;;10.51;69.50
64886;BME280;51514;52.206;5.114;2023-02-15T11:39:14;102570.38;;;10.66;69.44
64886;BME280;51514;52.206;5.114;2023-02-15T11:41:44;102565.97;;;10.76;68.54
64886;BME280;51514;52.206;5.114;2023-02-15T11:44:19;102564.50;;;10.83;69.13
64886;BME280;51514;52.206;5.114;2023-02-15T11:46:46;102556.31;;;10.84;68.18
64886;BME280;51514;52.206;5.114;2023-02-15T11:49:22;102559.75;;;10.86;67.93
64886;BME280;51514;52.206;5.114;2023-02-15T11:51:48;102565.53;;;10.93;69.20
64886;BME280;51514;52.206;5.114;2023-02-15T11:54:18;102559.91;;;10.96;69.56
64886;BME280;51514;52.206;5.114;2023-02-15T11:56:45;102551.06;;;10.94;68.68
64886;BME280;51514;52.206;5.114;2023-02-15T11:59:24;102555.47;;;10.95;68.60
64886;BME280;51514;52.206;5.114;2023-02-15T12:01:52;102559.19;;;11.05;68.57
64886;BME280;51514;52.206;5.114;2023-02-15T12:04:34;102546.66;;;11.04;67.47
64886;BME280;51514;52.206;5.114;2023-02-15T12:07:09;102549.13;;;11.07;68.09
64886;BME280;51514;52.206;5.114;2023-02-15T12:12:32;102541.78;;;11.20;67.51
64886;BME280;51514;52.206;5.114;2023-02-15T12:15:00;102537.88;;;11.24;68.12
64886;BME280;51514;52.206;5.114;2023-02-15T12:17:28;102536.41;;;11.31;68.17
64886;BME280;51514;52.206;5.114;2023-02-15T12:20:00;102538.34;;;11.41;67.40
64886;BME280;51514;52.206;5.114;2023-02-15T12:22:30;102536.00;;;11.47;67.44
64886;BME280;51514;52.206;5.114;2023-02-15T12:24:59;102524.34;;;11.58;66.80
64886;BME280;51514;52.206;5.114;2023-02-15T12:27:33;102522.75;;;11.66;66.58
64886;BME280;51514;52.206;5.114;2023-02-15T12:30:18;102518.22;;;11.67;65.69
64886;BME280;51514;52.206;5.114;2023-02-15T12:32:57;102512.19;;;11.63;63.95
64886;BME280;51514;52.206;5.114;2023-02-15T12:35:28;102511.31;;;11.74;65.82
64886;BME280;51514;52.206;5.114;2023-02-15T12:37:56;102511.56;;;11.82;65.43
64886;BME280;51514;52.206;5.114;2023-02-15T12:40:29;102518.53;;;11.96;64.23
64886;BME280;51514;52.206;5.114;2023-02-15T12:42:55;102520.34;;;12.06;65.27
64886;BME280;51514;52.206;5.114;2023-02-15T12:45:25;102520.81;;;12.12;63.49
64886;BME280;51514;52.206;5.114;2023-02-15T12:48:20;102517.63;;;12.18;63.20
64886;BME280;51514;52.206;5.114;2023-02-15T12:50:51;102510.19;;;12.31;63.28
64886;BME280;51514;52.206;5.114;2023-02-15T12:53:19;102515.19;;;12.35;62.73
64886;BME280;51514;52.206;5.114;2023-02-15T12:55:59;102515.06;;;12.37;63.11
64886;BME280;51514;52.206;5.114;2023-02-15T12:58:38;102513.22;;;12.37;62.54
64886;BME280;51514;52.206;5.114;2023-02-15T13:03:58;102504.50;;;12.34;61.69
64886;BME280;51514;52.206;5.114;2023-02-15T13:06:24;102510.56;;;12.26;62.07
64886;BME280;51514;52.206;5.114;2023-02-15T13:08:52;102510.81;;;12.23;62.91
64886;BME280;51514;52.206;5.114;2023-02-15T13:11:26;102502.88;;;12.22;63.37
64886;BME280;51514;52.206;5.114;2023-02-15T13:14:03;102502.38;;;12.17;63.52
64886;BME280;51514;52.206;5.114;2023-02-15T13:16:42;102503.25;;;12.17;64.05
64886;BME280;51514;52.206;5.114;2023-02-15T13:19:14;102499.69;;;12.17;63.77
64886;BME280;51514;52.206;5.114;2023-02-15T13:21:42;102500.66;;;12.16;64.31
64886;BME280;51514;52.206;5.114;2023-02-15T13:24:21;102501.63;;;12.15;64.23
64886;BME280;51514;52.206;5.114;2023-02-15T13:26:48;102494.50;;;12.14;63.87
64886;BME280;51514;52.206;5.114;2023-02-15T13:29:31;102491.81;;;12.14;64.54
64886;BME280;51514;52.206;5.114;2023-02-15T13:32:07;102492.41;;;12.17;65.02
64886;BME280;51514;52.206;5.114;2023-02-15T13:34:38;102490.38;;;12.10;63.65
64886;BME280;51514;52.206;5.114;2023-02-15T13:42:18;102497.34;;;12.12;64.21
64886;BME280;51514;52.206;5.114;2023-02-15T13:52:27;102481.28;;;12.11;64.28
64886;BME280;51514;52.206;5.114;2023-02-15T13:55:23;102483.25;;;12.09;64.92
64886;BME280;51514;52.206;5.114;2023-02-15T14:28:57;102453.50;;;12.09;64.28
64886;BME280;51514;52.206;5.114;2023-02-15T14:31:29;102454.72;;;12.04;64.25
64886;BME280;51514;52.206;5.114;2023-02-15T14:33:57;102456.81;;;12.01;64.48
64886;BME280;51514;52.206;5.114;2023-02-15T14:36:23;102447.94;;;11.89;64.36
64886;BME280;51514;52.206;5.114;2023-02-15T14:41:58;102455.03;;;11.90;65.04
64886;BME280;51514;52.206;5.114;2023-02-15T14:44:36;102458.47;;;11.92;65.23
64886;BME280;51514;52.206;5.114;2023-02-15T14:47:20;102456.75;;;11.91;65.18
64886;BME280;51514;52.206;5.114;2023-02-15T14:49:47;102447.28;;;11.97;65.77
64886;BME280;51514;52.206;5.114;2023-02-15T14:52:12;102452.56;;;11.98;65.18
64886;BME280;51514;52.206;5.114;2023-02-15T15:04:55;102458.78;;;11.78;65.29
64886;BME280;51514;52.206;5.114;2023-02-15T15:07:24;102465.38;;;11.74;65.77
64886;BME280;51514;52.206;5.114;2023-02-15T15:12:42;102455.66;;;11.71;66.40
64886;BME280;51514;52.206;5.114;2023-02-15T15:15:12;102455.53;;;11.73;66.86
64886;BME280;51514;52.206;5.114;2023-02-15T15:22:32;102455.34;;;11.76;66.55
64886;BME280;51514;52.206;5.114;2023-02-15T15:25:00;102448.81;;;11.67;66.35
64886;BME280;51514;52.206;5.114;2023-02-15T15:38:54;102438.91;;;11.57;66.74
64886;BME280;51514;52.206;5.114;2023-02-15T15:41:43;102436.56;;;11.52;66.89
64886;BME280;51514;52.206;5.114;2023-02-15T15:47:44;102440.03;;;11.43;67.29
64886;BME280;51514;52.206;5.114;2023-02-15T15:50:17;102432.28;;;11.39;67.50
64886;BME280;51514;52.206;5.114;2023-02-15T15:52:47;102429.00;;;11.35;67.33
64886;BME280;51514;52.206;5.114;2023-02-15T15:55:20;102432.19;;;11.29;67.60
64886;BME280;51514;52.206;5.114;2023-02-15T15:57:51;102434.25;;;11.25;67.84
64886;BME280;51514;52.206;5.114;2023-02-15T16:00:39;102432.94;;;11.20;68.00
64886;BME280;51514;52.206;5.114;2023-02-15T16:03:14;102430.59;;;11.15;68.29
64886;BME280;51514;52.206;5.114;2023-02-15T16:05:40;102434.41;;;11.13;68.45
64886;BME280;51514;52.206;5.114;2023-02-15T16:08:06;102433.91;;;11.08;68.75
64886;BME280;51514;52.206;5.114;2023-02-15T16:10:32;102436.25;;;11.01;68.79
64886;BME280;51514;52.206;5.114;2023-02-15T16:12:59;102437.22;;;11.00;69.00
64886;BME280;51514;52.206;5.114;2023-02-15T16:15:33;102427.66;;;10.96;69.10